sensor_id;sensor_type;location;lat;lon;timestamp;temperature;humidity
5027;DHT22;2532;52.480;13.354;2022-09-03T00:01:10;17.20;65.10
5027;DHT22;2532;52.480;13.354;2022-09-03T00:03:42;17.20;65.20
5027;DHT22;2532;52.480;13.354;2022-09-03T00:06:13;17.20;65.30
5027;DHT22;2532;52.480;13.354;2022-09-03T00:08:49;17.20;65.30
5027;DHT22;2532;52.480;13.354;2022-09-03T00:11:19;17.10;65.40
5027;DHT22;2532;52.480;13.354;2022-09-03T00:13:54;17.10;65.40
5027;DHT22;2532;52.480;13.354;2022-09-03T00:16:33;17.10;65.50
5027;DHT22;2532;52.480;13.354;2022-09-03T00:19:03;17.10;65.90
5027;DHT22;2532;52.480;13.354;2022-09-03T00:21:45;17.10;65.90
5027;DHT22;2532;52.480;13.354;2022-09-03T00:24:18;17.00;66.10
5027;DHT22;2532;52.480;13.354;2022-09-03T00:26:59;17.00;66.10
5027;DHT22;2532;52.480;13.354;2022-09-03T00:29:34;17.00;66.20
5027;DHT22;2532;52.480;13.354;2022-09-03T00:32:09;16.90;66.40
5027;DHT22;2532;52.480;13.354;2022-09-03T00:34:42;17.00;66.50
5027;DHT22;2532;52.480;13.354;2022-09-03T00:37:11;16.80;66.90
5027;DHT22;2532;52.480;13.354;2022-09-03T00:39:43;16.80;66.90
5027;DHT22;2532;52.480;13.354;2022-09-03T00:42:24;16.80;67.20
5027;DHT22;2532;52.480;13.354;2022-09-03T00:47:50;16.70;67.40
5027;DHT22;2532;52.480;13.354;2022-09-03T00:50:28;16.70;67.40
5027;DHT22;2532;52.480;13.354;2022-09-03T00:53:02;16.70;67.70
5027;DHT22;2532;52.480;13.354;2022-09-03T00:55:41;16.60;67.70
5027;DHT22;2532;52.480;13.354;2022-09-03T00:58:34;16.60;67.70
5027;DHT22;2532;52.480;13.354;2022-09-03T01:01:12;16.50;67.90
5027;DHT22;2532;52.480;13.354;2022-09-03T01:03:49;16.50;68.10
5027;DHT22;2532;52.480;13.354;2022-09-03T01:06:26;16.40;68.30
5027;DHT22;2532;52.480;13.354;2022-09-03T01:09:06;16.30;68.40
5027;DHT22;2532;52.480;13.354;2022-09-03T01:11:41;16.30;68.70
5027;DHT22;2532;52.480;13.354;2022-09-03T01:14:18;16.30;68.80
5027;DHT22;2532;52.480;13.354;2022-09-03T01:16:52;16.30;68.90
5027;DHT22;2532;52.480;13.354;2022-09-03T01:22:50;16.20;68.90
5027;DHT22;2532;52.480;13.354;2022-09-03T01:25:31;16.20;69.10
5027;DHT22;2532;52.480;13.354;2022-09-03T01:28:14;16.20;69.10
5027;DHT22;2532;52.480;13.354;2022-09-03T01:30:48;16.20;69.20
5027;DHT22;2532;52.480;13.354;2022-09-03T01:33:23;16.10;69.00
5027;DHT22;2532;52.480;13.354;2022-09-03T01:36:00;16.10;69.00
5027;DHT22;2532;52.480;13.354;2022-09-03T01:38:37;16.20;69.30
5027;DHT22;2532;52.480;13.354;2022-09-03T01:41:15;16.20;69.20
5027;DHT22;2532;52.480;13.354;2022-09-03T01:44:12;16.20;69.20
5027;DHT22;2532;52.480;13.354;2022-09-03T01:46:48;16.20;69.30
5027;DHT22;2532;52.480;13.354;2022-09-03T01:49:19;16.20;69.40
5027;DHT22;2532;52.480;13.354;2022-09-03T01:51:52;16.20;69.50
5027;DHT22;2532;52.480;13.354;2022-09-03T01:54:57;16.20;69.60
5027;DHT22;2532;52.480;13.354;2022-09-03T01:57:40;16.30;69.70
5027;DHT22;2532;52.480;13.354;2022-09-03T02:00:12;16.20;69.70
5027;DHT22;2532;52.480;13.354;2022-09-03T02:02:39;16.30;69.70
5027;DHT22;2532;52.480;13.354;2022-09-03T02:05:10;16.10;69.80
5027;DHT22;2532;52.480;13.354;2022-09-03T02:07:39;16.20;70.10
5027;DHT22;2532;52.480;13.354;2022-09-03T02:10:08;16.20;70.20
5027;DHT22;2532;52.480;13.354;2022-09-03T02:12:38;16.10;69.80
5027;DHT22;2532;52.480;13.354;2022-09-03T02:15:12;16.10;70.20
5027;DHT22;2532;52.480;13.354;2022-09-03T02:17:41;16.00;70.20
5027;DHT22;2532;52.480;13.354;2022-09-03T02:20:12;16.00;70.30
5027;DHT22;2532;52.480;13.354;2022-09-03T02:22:39;16.00;70.50
5027;DHT22;2532;52.480;13.354;2022-09-03T02:25:08;15.90;70.60
5027;DHT22;2532;52.480;13.354;2022-09-03T02:27:35;15.90;70.80
5027;DHT22;2532;52.480;13.354;2022-09-03T02:30:03;15.80;70.80
5027;DHT22;2532;52.480;13.354;2022-09-03T02:32:32;15.80;71.20
5027;DHT22;2532;52.480;13.354;2022-09-03T02:34:59;15.80;71.10
5027;DHT22;2532;52.480;13.354;2022-09-03T02:37:26;15.80;71.50
5027;DHT22;2532;52.480;13.354;2022-09-03T02:39:53;15.70;71.50
5027;DHT22;2532;52.480;13.354;2022-09-03T02:42:19;15.70;71.50
5027;DHT22;2532;52.480;13.354;2022-09-03T02:44:49;15.70;71.60
5027;DHT22;2532;52.480;13.354;2022-09-03T02:47:18;15.70;71.70
5027;DHT22;2532;52.480;13.354;2022-09-03T02:49:47;15.70;72.00
5027;DHT22;2532;52.480;13.354;2022-09-03T02:52:14;15.70;72.20
5027;DHT22;2532;52.480;13.354;2022-09-03T02:54:42;15.60;72.00
5027;DHT22;2532;52.480;13.354;2022-09-03T02:57:13;15.60;72.30
5027;DHT22;2532;52.480;13.354;2022-09-03T02:59:41;15.60;72.20
5027;DHT22;2532;52.480;13.354;2022-09-03T03:02:10;15.50;72.30
5027;DHT22;2532;52.480;13.354;2022-09-03T03:04:37;15.50;72.40
5027;DHT22;2532;52.480;13.354;2022-09-03T03:07:06;15.50;72.40
5027;DHT22;2532;52.480;13.354;2022-09-03T03:09:33;15.40;72.50
5027;DHT22;2532;52.480;13.354;2022-09-03T03:12:00;15.50;72.70
5027;DHT22;2532;52.480;13.354;2022-09-03T03:14:26;15.50;72.80
5027;DHT22;2532;52.480;13.354;2022-09-03T03:16:53;15.40;72.80
5027;DHT22;2532;52.480;13.354;2022-09-03T03:19:20;15.40;72.80
5027;DHT22;2532;52.480;13.354;2022-09-03T03:21:47;15.40;73.00
5027;DHT22;2532;52.480;13.354;2022-09-03T03:24:15;15.40;73.10
5027;DHT22;2532;52.480;13.354;2022-09-03T03:26:42;15.30;73.10
5027;DHT22;2532;52.480;13.354;2022-09-03T03:29:14;15.30;73.20
5027;DHT22;2532;52.480;13.354;2022-09-03T03:31:42;15.30;73.40
5027;DHT22;2532;52.480;13.354;2022-09-03T03:34:09;15.30;73.60
5027;DHT22;2532;52.480;13.354;2022-09-03T03:36:36;15.30;73.30
5027;DHT22;2532;52.480;13.354;2022-09-03T03:39:03;15.30;73.40
5027;DHT22;2532;52.480;13.354;2022-09-03T03:41:32;15.20;73.20
5027;DHT22;2532;52.480;13.354;2022-09-03T03:44:01;15.20;73.50
5027;DHT22;2532;52.480;13.354;2022-09-03T03:46:29;15.30;73.70
5027;DHT22;2532;52.480;13.354;2022-09-03T03:48:57;15.30;73.90
5027;DHT22;2532;52.480;13.354;2022-09-03T03:51:24;15.20;73.60
5027;DHT22;2532;52.480;13.354;2022-09-03T03:53:54;15.20;73.70
5027;DHT22;2532;52.480;13.354;2022-09-03T03:56:21;15.20;73.80
5027;DHT22;2532;52.480;13.354;2022-09-03T03:58:50;15.20;73.70
5027;DHT22;2532;52.480;13.354;2022-09-03T04:01:19;15.20;73.90
5027;DHT22;2532;52.480;13.354;2022-09-03T04:03:46;15.20;73.90
5027;DHT22;2532;52.480;13.354;2022-09-03T04:06:14;15.10;74.00
5027;DHT22;2532;52.480;13.354;2022-09-03T04:08:42;15.10;74.20
5027;DHT22;2532;52.480;13.354;2022-09-03T04:11:11;15.10;74.30
5027;DHT22;2532;52.480;13.354;2022-09-03T04:13:40;15.10;74.50
5027;DHT22;2532;52.480;13.354;2022-09-03T04:16:10;15.10;74.40
5027;DHT22;2532;52.480;13.354;2022-09-03T04:18:38;15.00;74.50
5027;DHT22;2532;52.480;13.354;2022-09-03T04:21:07;15.10;74.50
5027;DHT22;2532;52.480;13.354;2022-09-03T04:23:35;15.00;74.60
5027;DHT22;2532;52.480;13.354;2022-09-03T04:26:03;15.00;74.60
5027;DHT22;2532;52.480;13.354;2022-09-03T04:28:30;15.00;74.70
5027;DHT22;2532;52.480;13.354;2022-09-03T04:31:00;15.00;74.80
5027;DHT22;2532;52.480;13.354;2022-09-03T04:33:28;15.00;74.90
5027;DHT22;2532;52.480;13.354;2022-09-03T04:36:02;14.90;75.50
5027;DHT22;2532;52.480;13.354;2022-09-03T04:38:30;14.90;75.40
5027;DHT22;2532;52.480;13.354;2022-09-03T04:40:59;14.90;76.40
5027;DHT22;2532;52.480;13.354;2022-09-03T04:43:26;14.80;75.90
5027;DHT22;2532;52.480;13.354;2022-09-03T04:45:56;14.80;76.10
5027;DHT22;2532;52.480;13.354;2022-09-03T04:48:24;14.80;76.30
5027;DHT22;2532;52.480;13.354;2022-09-03T04:50:52;14.80;76.80
5027;DHT22;2532;52.480;13.354;2022-09-03T04:53:20;14.80;76.50
5027;DHT22;2532;52.480;13.354;2022-09-03T04:55:47;14.90;76.80
5027;DHT22;2532;52.480;13.354;2022-09-03T04:58:14;14.90;76.90
5027;DHT22;2532;52.480;13.354;2022-09-03T05:00:41;14.90;76.90
5027;DHT22;2532;52.480;13.354;2022-09-03T05:03:08;14.90;76.90
5027;DHT22;2532;52.480;13.354;2022-09-03T05:05:34;14.90;77.10
5027;DHT22;2532;52.480;13.354;2022-09-03T05:08:03;14.90;77.20
5027;DHT22;2532;52.480;13.354;2022-09-03T05:10:31;15.00;77.50
5027;DHT22;2532;52.480;13.354;2022-09-03T05:13:00;15.00;77.80
5027;DHT22;2532;52.480;13.354;2022-09-03T05:15:28;15.00;77.80
5027;DHT22;2532;52.480;13.354;2022-09-03T05:17:56;15.00;78.20
5027;DHT22;2532;52.480;13.354;2022-09-03T05:20:23;15.00;78.50
5027;DHT22;2532;52.480;13.354;2022-09-03T05:22:50;15.00;78.40
5027;DHT22;2532;52.480;13.354;2022-09-03T05:25:19;15.00;78.60
5027;DHT22;2532;52.480;13.354;2022-09-03T05:27:47;15.00;78.70
5027;DHT22;2532;52.480;13.354;2022-09-03T05:30:14;15.00;79.00
5027;DHT22;2532;52.480;13.354;2022-09-03T05:32:41;15.00;79.10
5027;DHT22;2532;52.480;13.354;2022-09-03T05:35:08;15.00;79.30
5027;DHT22;2532;52.480;13.354;2022-09-03T05:37:36;15.00;79.40
5027;DHT22;2532;52.480;13.354;2022-09-03T05:40:04;15.10;79.70
5027;DHT22;2532;52.480;13.354;2022-09-03T05:42:32;15.00;79.90
5027;DHT22;2532;52.480;13.354;2022-09-03T05:45:05;15.00;80.00
5027;DHT22;2532;52.480;13.354;2022-09-03T05:47:34;15.10;80.00
5027;DHT22;2532;52.480;13.354;2022-09-03T05:50:01;15.10;80.10
5027;DHT22;2532;52.480;13.354;2022-09-03T05:52:29;15.20;80.30
5027;DHT22;2532;52.480;13.354;2022-09-03T05:54:56;15.30;80.20
5027;DHT22;2532;52.480;13.354;2022-09-03T05:57:23;15.30;80.40
5027;DHT22;2532;52.480;13.354;2022-09-03T05:59:51;15.30;80.40
5027;DHT22;2532;52.480;13.354;2022-09-03T06:02:18;15.40;80.50
5027;DHT22;2532;52.480;13.354;2022-09-03T06:04:45;15.40;80.70
5027;DHT22;2532;52.480;13.354;2022-09-03T06:07:11;15.50;80.60
5027;DHT22;2532;52.480;13.354;2022-09-03T06:09:38;15.50;80.70
5027;DHT22;2532;52.480;13.354;2022-09-03T06:12:06;15.60;80.50
5027;DHT22;2532;52.480;13.354;2022-09-03T06:14:33;15.70;80.70
5027;DHT22;2532;52.480;13.354;2022-09-03T06:17:01;15.70;80.40
5027;DHT22;2532;52.480;13.354;2022-09-03T06:19:28;15.80;80.20
5027;DHT22;2532;52.480;13.354;2022-09-03T06:21:55;15.80;80.10
5027;DHT22;2532;52.480;13.354;2022-09-03T06:24:21;15.90;80.20
5027;DHT22;2532;52.480;13.354;2022-09-03T06:26:49;15.90;80.30
5027;DHT22;2532;52.480;13.354;2022-09-03T06:29:16;15.90;80.30
5027;DHT22;2532;52.480;13.354;2022-09-03T06:31:44;15.80;80.40
5027;DHT22;2532;52.480;13.354;2022-09-03T06:34:14;15.80;80.40
5027;DHT22;2532;52.480;13.354;2022-09-03T06:36:43;15.80;80.60
5027;DHT22;2532;52.480;13.354;2022-09-03T06:39:10;15.90;80.80
5027;DHT22;2532;52.480;13.354;2022-09-03T06:41:37;15.90;81.00
5027;DHT22;2532;52.480;13.354;2022-09-03T06:44:05;16.00;81.20
5027;DHT22;2532;52.480;13.354;2022-09-03T06:46:37;16.10;81.00
5027;DHT22;2532;52.480;13.354;2022-09-03T06:49:07;16.20;81.10
5027;DHT22;2532;52.480;13.354;2022-09-03T06:51:36;16.30;80.50
5027;DHT22;2532;52.480;13.354;2022-09-03T06:54:05;16.40;80.10
5027;DHT22;2532;52.480;13.354;2022-09-03T06:56:33;16.40;80.00
5027;DHT22;2532;52.480;13.354;2022-09-03T06:59:04;16.40;79.90
5027;DHT22;2532;52.480;13.354;2022-09-03T07:01:32;16.50;80.10
5027;DHT22;2532;52.480;13.354;2022-09-03T07:04:01;16.50;80.50
5027;DHT22;2532;52.480;13.354;2022-09-03T07:06:29;16.50;80.10
5027;DHT22;2532;52.480;13.354;2022-09-03T07:08:58;16.70;80.30
5027;DHT22;2532;52.480;13.354;2022-09-03T07:11:26;16.70;80.00
5027;DHT22;2532;52.480;13.354;2022-09-03T07:13:57;16.80;79.80
5027;DHT22;2532;52.480;13.354;2022-09-03T07:16:26;16.90;79.60
5027;DHT22;2532;52.480;13.354;2022-09-03T07:18:54;16.90;79.40
5027;DHT22;2532;52.480;13.354;2022-09-03T07:21:23;16.90;79.40
5027;DHT22;2532;52.480;13.354;2022-09-03T07:23:51;17.00;79.60
5027;DHT22;2532;52.480;13.354;2022-09-03T07:26:20;17.00;79.40
5027;DHT22;2532;52.480;13.354;2022-09-03T07:28:48;17.00;79.60
5027;DHT22;2532;52.480;13.354;2022-09-03T07:31:17;17.10;79.30
5027;DHT22;2532;52.480;13.354;2022-09-03T07:33:45;17.10;79.10
5027;DHT22;2532;52.480;13.354;2022-09-03T07:36:14;17.30;79.20
5027;DHT22;2532;52.480;13.354;2022-09-03T07:38:42;17.30;79.10
5027;DHT22;2532;52.480;13.354;2022-09-03T07:41:10;17.40;79.00
5027;DHT22;2532;52.480;13.354;2022-09-03T07:43:40;17.40;79.00
5027;DHT22;2532;52.480;13.354;2022-09-03T07:46:08;17.50;78.70
5027;DHT22;2532;52.480;13.354;2022-09-03T07:48:37;17.60;78.80
5027;DHT22;2532;52.480;13.354;2022-09-03T07:51:04;17.60;79.00
5027;DHT22;2532;52.480;13.354;2022-09-03T07:53:31;17.70;78.50
5027;DHT22;2532;52.480;13.354;2022-09-03T07:56:02;17.90;78.70
5027;DHT22;2532;52.480;13.354;2022-09-03T07:58:30;17.90;78.40
5027;DHT22;2532;52.480;13.354;2022-09-03T08:01:03;17.90;77.50
5027;DHT22;2532;52.480;13.354;2022-09-03T08:03:30;18.00;77.30
5027;DHT22;2532;52.480;13.354;2022-09-03T08:06:00;18.00;76.80
5027;DHT22;2532;52.480;13.354;2022-09-03T08:08:28;18.10;76.50
5027;DHT22;2532;52.480;13.354;2022-09-03T08:11:03;18.10;76.50
5027;DHT22;2532;52.480;13.354;2022-09-03T08:13:31;18.10;76.70
5027;DHT22;2532;52.480;13.354;2022-09-03T08:15:59;18.30;76.60
5027;DHT22;2532;52.480;13.354;2022-09-03T08:18:26;18.40;76.70
5027;DHT22;2532;52.480;13.354;2022-09-03T08:21:03;18.50;75.90
5027;DHT22;2532;52.480;13.354;2022-09-03T08:23:31;18.50;75.40
5027;DHT22;2532;52.480;13.354;2022-09-03T08:25:58;18.50;75.60
5027;DHT22;2532;52.480;13.354;2022-09-03T08:28:25;18.50;76.10
5027;DHT22;2532;52.480;13.354;2022-09-03T08:30:52;18.60;75.70
5027;DHT22;2532;52.480;13.354;2022-09-03T08:33:21;18.60;75.40
5027;DHT22;2532;52.480;13.354;2022-09-03T08:36:02;18.70;75.30
5027;DHT22;2532;52.480;13.354;2022-09-03T08:38:31;18.80;75.50
5027;DHT22;2532;52.480;13.354;2022-09-03T08:41:06;19.00;74.70
5027;DHT22;2532;52.480;13.354;2022-09-03T08:43:52;19.00;74.60
5027;DHT22;2532;52.480;13.354;2022-09-03T08:46:25;19.20;74.60
5027;DHT22;2532;52.480;13.354;2022-09-03T08:48:59;19.30;73.70
5027;DHT22;2532;52.480;13.354;2022-09-03T08:51:27;19.40;73.00
5027;DHT22;2532;52.480;13.354;2022-09-03T08:53:54;19.40;73.20
5027;DHT22;2532;52.480;13.354;2022-09-03T08:56:25;19.40;72.80
5027;DHT22;2532;52.480;13.354;2022-09-03T08:58:53;19.40;72.50
5027;DHT22;2532;52.480;13.354;2022-09-03T09:01:28;19.40;72.00
5027;DHT22;2532;52.480;13.354;2022-09-03T09:04:04;19.40;71.80
5027;DHT22;2532;52.480;13.354;2022-09-03T09:06:36;19.40;71.70
5027;DHT22;2532;52.480;13.354;2022-09-03T09:09:16;19.50;71.40
5027;DHT22;2532;52.480;13.354;2022-09-03T09:11:51;19.60;71.30
5027;DHT22;2532;52.480;13.354;2022-09-03T09:14:28;19.70;71.20
5027;DHT22;2532;52.480;13.354;2022-09-03T09:17:03;19.80;71.20
5027;DHT22;2532;52.480;13.354;2022-09-03T09:19:38;19.90;70.40
5027;DHT22;2532;52.480;13.354;2022-09-03T09:22:10;20.00;70.20
5027;DHT22;2532;52.480;13.354;2022-09-03T09:24:41;20.00;69.90
5027;DHT22;2532;52.480;13.354;2022-09-03T09:27:09;20.10;69.90
5027;DHT22;2532;52.480;13.354;2022-09-03T09:29:41;20.20;68.70
5027;DHT22;2532;52.480;13.354;2022-09-03T09:32:10;20.20;68.30
5027;DHT22;2532;52.480;13.354;2022-09-03T09:34:43;20.30;68.50
5027;DHT22;2532;52.480;13.354;2022-09-03T09:37:11;20.40;68.40
5027;DHT22;2532;52.480;13.354;2022-09-03T09:39:40;20.40;68.30
5027;DHT22;2532;52.480;13.354;2022-09-03T09:42:09;20.60;68.50
5027;DHT22;2532;52.480;13.354;2022-09-03T09:44:38;20.60;68.20
5027;DHT22;2532;52.480;13.354;2022-09-03T09:47:07;20.70;68.00
5027;DHT22;2532;52.480;13.354;2022-09-03T09:49:37;20.80;67.80
5027;DHT22;2532;52.480;13.354;2022-09-03T09:52:12;20.90;67.10
5027;DHT22;2532;52.480;13.354;2022-09-03T09:54:41;21.00;66.20
5027;DHT22;2532;52.480;13.354;2022-09-03T09:57:14;21.10;65.70
5027;DHT22;2532;52.480;13.354;2022-09-03T09:59:43;21.10;65.10
5027;DHT22;2532;52.480;13.354;2022-09-03T10:02:12;21.10;64.30
5027;DHT22;2532;52.480;13.354;2022-09-03T10:04:39;21.30;64.80
5027;DHT22;2532;52.480;13.354;2022-09-03T10:07:21;21.20;63.90
5027;DHT22;2532;52.480;13.354;2022-09-03T10:09:58;21.30;63.50
5027;DHT22;2532;52.480;13.354;2022-09-03T10:12:29;21.40;62.80
5027;DHT22;2532;52.480;13.354;2022-09-03T10:15:04;21.60;61.40
5027;DHT22;2532;52.480;13.354;2022-09-03T10:17:43;21.70;61.60
5027;DHT22;2532;52.480;13.354;2022-09-03T10:20:13;21.80;61.40
5027;DHT22;2532;52.480;13.354;2022-09-03T10:22:59;21.80;60.10
5027;DHT22;2532;52.480;13.354;2022-09-03T10:25:35;21.80;59.60
5027;DHT22;2532;52.480;13.354;2022-09-03T10:28:05;21.90;59.70
5027;DHT22;2532;52.480;13.354;2022-09-03T10:30:42;22.00;59.10
5027;DHT22;2532;52.480;13.354;2022-09-03T10:33:16;22.10;58.80
5027;DHT22;2532;52.480;13.354;2022-09-03T10:35:51;22.10;58.10
5027;DHT22;2532;52.480;13.354;2022-09-03T10:38:26;22.10;57.80
5027;DHT22;2532;52.480;13.354;2022-09-03T10:41:01;22.10;56.90
5027;DHT22;2532;52.480;13.354;2022-09-03T10:43:56;22.10;57.20
5027;DHT22;2532;52.480;13.354;2022-09-03T10:46:28;22.10;57.30
5027;DHT22;2532;52.480;13.354;2022-09-03T10:52:11;22.10;57.80
5027;DHT22;2532;52.480;13.354;2022-09-03T10:54:55;22.20;57.60
5027;DHT22;2532;52.480;13.354;2022-09-03T10:57:34;22.10;56.60
5027;DHT22;2532;52.480;13.354;2022-09-03T11:00:07;22.10;56.80
5027;DHT22;2532;52.480;13.354;2022-09-03T11:05:53;22.20;56.40
5027;DHT22;2532;52.480;13.354;2022-09-03T11:08:24;22.20;56.50
5027;DHT22;2532;52.480;13.354;2022-09-03T11:11:02;22.20;56.80
5027;DHT22;2532;52.480;13.354;2022-09-03T11:13:33;22.30;55.80
5027;DHT22;2532;52.480;13.354;2022-09-03T11:16:03;22.40;55.80
5027;DHT22;2532;52.480;13.354;2022-09-03T11:18:34;22.40;55.20
5027;DHT22;2532;52.480;13.354;2022-09-03T11:21:05;22.50;54.60
5027;DHT22;2532;52.480;13.354;2022-09-03T11:23:40;22.60;54.50
5027;DHT22;2532;52.480;13.354;2022-09-03T11:26:11;22.70;54.30
5027;DHT22;2532;52.480;13.354;2022-09-03T11:28:42;22.80;53.40
5027;DHT22;2532;52.480;13.354;2022-09-03T11:31:21;22.80;53.60
5027;DHT22;2532;52.480;13.354;2022-09-03T11:33:53;22.90;53.50
5027;DHT22;2532;52.480;13.354;2022-09-03T11:36:28;23.00;52.90
5027;DHT22;2532;52.480;13.354;2022-09-03T11:38:56;23.00;53.00
5027;DHT22;2532;52.480;13.354;2022-09-03T11:41:25;23.10;53.10
5027;DHT22;2532;52.480;13.354;2022-09-03T11:43:53;23.10;52.90
5027;DHT22;2532;52.480;13.354;2022-09-03T11:46:28;23.10;52.40
5027;DHT22;2532;52.480;13.354;2022-09-03T11:49:07;23.00;51.70
5027;DHT22;2532;52.480;13.354;2022-09-03T11:51:36;23.00;52.20
5027;DHT22;2532;52.480;13.354;2022-09-03T11:54:23;23.00;51.10
5027;DHT22;2532;52.480;13.354;2022-09-03T11:57:05;23.10;50.20
5027;DHT22;2532;52.480;13.354;2022-09-03T11:59:35;23.10;50.60
5027;DHT22;2532;52.480;13.354;2022-09-03T12:02:13;23.20;51.10
5027;DHT22;2532;52.480;13.354;2022-09-03T12:04:47;23.20;51.50
5027;DHT22;2532;52.480;13.354;2022-09-03T12:07:31;23.30;51.40
5027;DHT22;2532;52.480;13.354;2022-09-03T12:10:16;23.50;55.40
5027;DHT22;2532;52.480;13.354;2022-09-03T12:12:54;23.60;50.00
5027;DHT22;2532;52.480;13.354;2022-09-03T12:15:48;23.70;55.70
5027;DHT22;2532;52.480;13.354;2022-09-03T12:18:21;23.90;49.40
5027;DHT22;2532;52.480;13.354;2022-09-03T12:21:01;24.10;49.60
5027;DHT22;2532;52.480;13.354;2022-09-03T12:23:30;24.20;48.80
5027;DHT22;2532;52.480;13.354;2022-09-03T12:26:01;24.30;48.20
5027;DHT22;2532;52.480;13.354;2022-09-03T12:28:34;24.30;47.80
5027;DHT22;2532;52.480;13.354;2022-09-03T12:31:07;24.50;49.10
5027;DHT22;2532;52.480;13.354;2022-09-03T12:33:47;24.60;47.90
5027;DHT22;2532;52.480;13.354;2022-09-03T12:36:14;24.60;47.20
5027;DHT22;2532;52.480;13.354;2022-09-03T12:38:41;24.50;46.90
5027;DHT22;2532;52.480;13.354;2022-09-03T12:41:20;24.60;47.00
5027;DHT22;2532;52.480;13.354;2022-09-03T12:43:53;24.60;47.60
5027;DHT22;2532;52.480;13.354;2022-09-03T12:46:23;24.60;47.40
5027;DHT22;2532;52.480;13.354;2022-09-03T12:48:55;24.70;47.30
5027;DHT22;2532;52.480;13.354;2022-09-03T12:51:22;24.60;46.50
5027;DHT22;2532;52.480;13.354;2022-09-03T12:53:50;24.70;49.80
5027;DHT22;2532;52.480;13.354;2022-09-03T12:56:19;24.70;47.00
5027;DHT22;2532;52.480;13.354;2022-09-03T12:58:51;24.60;46.90
5027;DHT22;2532;52.480;13.354;2022-09-03T13:01:25;24.60;48.10
5027;DHT22;2532;52.480;13.354;2022-09-03T13:04:00;24.60;46.50
5027;DHT22;2532;52.480;13.354;2022-09-03T13:06:32;24.70;49.00
5027;DHT22;2532;52.480;13.354;2022-09-03T13:09:02;24.80;47.00
5027;DHT22;2532;52.480;13.354;2022-09-03T13:11:33;24.80;46.10
5027;DHT22;2532;52.480;13.354;2022-09-03T13:14:04;24.80;45.90
5027;DHT22;2532;52.480;13.354;2022-09-03T13:17:15;24.80;46.00
5027;DHT22;2532;52.480;13.354;2022-09-03T13:19:55;24.70;45.50
5027;DHT22;2532;52.480;13.354;2022-09-03T13:22:32;24.60;45.80
5027;DHT22;2532;52.480;13.354;2022-09-03T13:25:13;24.60;46.20
5027;DHT22;2532;52.480;13.354;2022-09-03T13:27:44;24.60;47.70
5027;DHT22;2532;52.480;13.354;2022-09-03T13:30:20;24.60;47.80
5027;DHT22;2532;52.480;13.354;2022-09-03T13:32:56;24.70;46.40
5027;DHT22;2532;52.480;13.354;2022-09-03T13:35:33;24.60;46.20
5027;DHT22;2532;52.480;13.354;2022-09-03T13:38:12;24.60;46.90
5027;DHT22;2532;52.480;13.354;2022-09-03T13:40:46;24.60;46.80
5027;DHT22;2532;52.480;13.354;2022-09-03T13:43:21;24.60;49.50
5027;DHT22;2532;52.480;13.354;2022-09-03T13:45:56;24.60;47.50
5027;DHT22;2532;52.480;13.354;2022-09-03T13:48:29;24.60;48.00
5027;DHT22;2532;52.480;13.354;2022-09-03T13:51:30;24.70;46.60
5027;DHT22;2532;52.480;13.354;2022-09-03T13:54:03;24.70;46.60
5027;DHT22;2532;52.480;13.354;2022-09-03T13:56:45;24.60;46.20
5027;DHT22;2532;52.480;13.354;2022-09-03T13:59:19;24.60;46.70
5027;DHT22;2532;52.480;13.354;2022-09-03T14:02:01;24.60;45.90
5027;DHT22;2532;52.480;13.354;2022-09-03T14:04:41;24.50;46.10
5027;DHT22;2532;52.480;13.354;2022-09-03T14:07:16;24.40;46.20
5027;DHT22;2532;52.480;13.354;2022-09-03T14:09:58;24.30;46.80
5027;DHT22;2532;52.480;13.354;2022-09-03T14:12:36;24.20;46.70
5027;DHT22;2532;52.480;13.354;2022-09-03T14:15:13;24.20;46.80
5027;DHT22;2532;52.480;13.354;2022-09-03T14:17:48;24.20;46.70
5027;DHT22;2532;52.480;13.354;2022-09-03T14:20:21;24.30;46.90
5027;DHT22;2532;52.480;13.354;2022-09-03T14:22:54;24.30;46.90
5027;DHT22;2532;52.480;13.354;2022-09-03T14:25:24;24.30;46.50
5027;DHT22;2532;52.480;13.354;2022-09-03T14:27:51;24.30;46.30
5027;DHT22;2532;52.480;13.354;2022-09-03T14:30:30;24.30;46.20
5027;DHT22;2532;52.480;13.354;2022-09-03T14:33:09;24.30;45.90
5027;DHT22;2532;52.480;13.354;2022-09-03T14:35:49;24.40;46.10
5027;DHT22;2532;52.480;13.354;2022-09-03T14:41:42;24.40;46.20
5027;DHT22;2532;52.480;13.354;2022-09-03T14:44:52;24.40;46.30
5027;DHT22;2532;52.480;13.354;2022-09-03T14:47:33;24.30;46.50
5027;DHT22;2532;52.480;13.354;2022-09-03T14:50:21;24.20;46.50
5027;DHT22;2532;52.480;13.354;2022-09-03T14:53:17;24.20;46.50
5027;DHT22;2532;52.480;13.354;2022-09-03T14:56:00;24.30;46.50
5027;DHT22;2532;52.480;13.354;2022-09-03T14:58:42;24.50;46.90
5027;DHT22;2532;52.480;13.354;2022-09-03T15:01:22;24.70;47.00
5027;DHT22;2532;52.480;13.354;2022-09-03T15:04:12;25.00;45.90
5027;DHT22;2532;52.480;13.354;2022-09-03T15:06:56;25.20;45.60
5027;DHT22;2532;52.480;13.354;2022-09-03T15:09:34;25.40;45.20
5027;DHT22;2532;52.480;13.354;2022-09-03T15:12:08;25.50;44.30
5027;DHT22;2532;52.480;13.354;2022-09-03T15:14:40;25.50;44.20
5027;DHT22;2532;52.480;13.354;2022-09-03T15:17:34;25.50;44.50
5027;DHT22;2532;52.480;13.354;2022-09-03T15:20:21;25.40;45.00
5027;DHT22;2532;52.480;13.354;2022-09-03T15:23:20;25.20;44.90
5027;DHT22;2532;52.480;13.354;2022-09-03T15:26:06;25.20;45.50
5027;DHT22;2532;52.480;13.354;2022-09-03T15:28:44;25.10;45.80
5027;DHT22;2532;52.480;13.354;2022-09-03T15:31:20;25.20;46.20
5027;DHT22;2532;52.480;13.354;2022-09-03T15:33:52;25.10;45.50
5027;DHT22;2532;52.480;13.354;2022-09-03T15:36:22;25.10;45.30
5027;DHT22;2532;52.480;13.354;2022-09-03T15:38:54;25.10;46.00
5027;DHT22;2532;52.480;13.354;2022-09-03T15:41:34;25.00;45.60
5027;DHT22;2532;52.480;13.354;2022-09-03T15:44:07;25.00;45.90
5027;DHT22;2532;52.480;13.354;2022-09-03T15:46:48;25.00;45.30
5027;DHT22;2532;52.480;13.354;2022-09-03T15:49:22;24.90;45.60
5027;DHT22;2532;52.480;13.354;2022-09-03T15:52:01;24.90;45.60
5027;DHT22;2532;52.480;13.354;2022-09-03T15:54:40;24.70;45.70
5027;DHT22;2532;52.480;13.354;2022-09-03T15:57:11;24.60;46.00
5027;DHT22;2532;52.480;13.354;2022-09-03T15:59:41;24.60;46.60
5027;DHT22;2532;52.480;13.354;2022-09-03T16:02:15;24.50;45.90
5027;DHT22;2532;52.480;13.354;2022-09-03T16:04:55;24.30;45.80
5027;DHT22;2532;52.480;13.354;2022-09-03T16:07:44;24.30;45.80
5027;DHT22;2532;52.480;13.354;2022-09-03T16:10:15;24.10;45.90
5027;DHT22;2532;52.480;13.354;2022-09-03T16:12:49;24.10;46.40
5027;DHT22;2532;52.480;13.354;2022-09-03T16:15:20;24.10;46.40
5027;DHT22;2532;52.480;13.354;2022-09-03T16:17:52;24.20;46.50
5027;DHT22;2532;52.480;13.354;2022-09-03T16:20:22;24.30;46.20
5027;DHT22;2532;52.480;13.354;2022-09-03T16:22:56;24.30;46.30
5027;DHT22;2532;52.480;13.354;2022-09-03T16:25:29;24.30;46.40
5027;DHT22;2532;52.480;13.354;2022-09-03T16:28:02;24.30;46.00
5027;DHT22;2532;52.480;13.354;2022-09-03T16:30:44;24.30;45.70
5027;DHT22;2532;52.480;13.354;2022-09-03T16:33:20;24.30;45.70
5027;DHT22;2532;52.480;13.354;2022-09-03T16:35:58;24.20;45.80